sensor_id;sensor_type;location;lat;lon;timestamp;pressure;altitude;pressure_sealevel;temperature;humidity
64343;BME280;50675;53.530;-6.312;2024-03-23T14:22:08;100563.28;;;11.48;63.18
64343;BME280;50675;53.530;-6.312;2024-03-23T14:24:34;100563.19;;;11.69;63.06
64343;BME280;50675;53.530;-6.312;2024-03-23T14:27:00;100578.03;;;11.35;62.86
64343;BME280;50675;53.530;-6.312;2024-03-23T14:29:30;100563.34;;;11.26;62.73
64343;BME280;50675;53.530;-6.312;2024-03-23T14:31:55;100561.50;;;11.58;62.92
64343;BME280;50675;53.530;-6.312;2024-03-23T14:34:21;100575.41;;;11.72;63.01
64343;BME280;50675;53.530;-6.312;2024-03-23T14:36:47;100555.81;;;11.60;62.67
64343;BME280;50675;53.530;-6.312;2024-03-23T14:39:13;100568.19;;;11.77;62.57
64343;BME280;50675;53.530;-6.312;2024-03-23T14:41:40;100556.06;;;11.85;62.47
64343;BME280;50675;53.530;-6.312;2024-03-23T14:44:06;100540.56;;;11.75;62.26
64343;BME280;50675;53.530;-6.312;2024-03-23T14:46:31;100563.13;;;11.86;62.26
64343;BME280;50675;53.530;-6.312;2024-03-23T14:48:57;100558.88;;;11.68;62.28
64343;BME280;50675;53.530;-6.312;2024-03-23T14:51:23;100565.03;;;11.91;62.06
64343;BME280;50675;53.530;-6.312;2024-03-23T14:53:49;100558.06;;;12.00;62.05
64343;BME280;50675;53.530;-6.312;2024-03-23T14:56:15;100561.75;;;12.20;61.94
64343;BME280;50675;53.530;-6.312;2024-03-23T14:58:43;100540.66;;;11.86;61.87
64343;BME280;50675;53.530;-6.312;2024-03-23T15:01:18;100544.13;;;12.18;61.87
64343;BME280;50675;53.530;-6.312;2024-03-23T15:03:46;100570.41;;;12.22;61.76
64343;BME280;50675;53.530;-6.312;2024-03-23T15:06:36;100578.94;;;12.04;61.58
64343;BME280;50675;53.530;-6.312;2024-03-23T15:09:41;100556.09;;;11.90;61.22
64343;BME280;50675;53.530;-6.312;2024-03-23T15:13:06;100554.25;;;11.96;61.12
64343;BME280;50675;53.530;-6.312;2024-03-23T15:19:39;100563.66;;;11.88;60.84
64343;BME280;50675;53.530;-6.312;2024-03-23T15:26:15;100536.59;;;11.83;60.08
64343;BME280;50675;53.530;-6.312;2024-03-23T15:29:10;100563.09;;;12.23;60.50
64343;BME280;50675;53.530;-6.312;2024-03-23T15:31:48;100556.66;;;12.29;60.17
64343;BME280;50675;53.530;-6.312;2024-03-23T15:35:00;100511.19;;;11.94;59.94
64343;BME280;50675;53.530;-6.312;2024-03-23T15:40:06;100540.72;;;11.96;59.83
64343;BME280;50675;53.530;-6.312;2024-03-23T15:42:32;100551.84;;;11.99;59.69
64343;BME280;50675;53.530;-6.312;2024-03-23T15:44:58;100539.13;;;11.68;59.63
64343;BME280;50675;53.530;-6.312;2024-03-23T15:47:25;100532.19;;;11.77;59.50
64343;BME280;50675;53.530;-6.312;2024-03-23T15:49:51;100553.69;;;11.94;59.44
64343;BME280;50675;53.530;-6.312;2024-03-23T15:52:19;100532.19;;;11.77;59.31
64343;BME280;50675;53.530;-6.312;2024-03-23T15:54:44;100550.44;;;11.92;59.30
64343;BME280;50675;53.530;-6.312;2024-03-23T15:57:10;100544.00;;;11.71;59.33
64343;BME280;50675;53.530;-6.312;2024-03-23T15:59:40;100542.28;;;11.60;59.08
64343;BME280;50675;53.530;-6.312;2024-03-23T16:02:06;100552.09;;;11.66;59.31
64343;BME280;50675;53.530;-6.312;2024-03-23T16:04:32;100546.03;;;11.54;59.21
64343;BME280;50675;53.530;-6.312;2024-03-23T16:06:58;100555.84;;;11.65;59.19
64343;BME280;50675;53.530;-6.312;2024-03-23T16:09:26;100555.00;;;11.86;59.13
64343;BME280;50675;53.530;-6.312;2024-03-23T16:11:54;100540.31;;;11.77;59.12
64343;BME280;50675;53.530;-6.312;2024-03-23T16:14:20;100545.91;;;11.70;58.98
64343;BME280;50675;53.530;-6.312;2024-03-23T16:16:45;100551.91;;;11.72;58.92
64343;BME280;50675;53.530;-6.312;2024-03-23T16:19:12;100563.56;;;11.73;58.94
64343;BME280;50675;53.530;-6.312;2024-03-23T16:21:39;100554.38;;;11.79;58.97
64343;BME280;50675;53.530;-6.312;2024-03-23T16:24:06;100582.28;;;11.53;58.88
64343;BME280;50675;53.530;-6.312;2024-03-23T16:26:33;100555.13;;;11.43;58.89
64343;BME280;50675;53.530;-6.312;2024-03-23T16:28:59;100550.97;;;11.62;58.83
64343;BME280;50675;53.530;-6.312;2024-03-23T16:31:25;100576.47;;;11.71;58.85
64343;BME280;50675;53.530;-6.312;2024-03-23T16:50:49;100570.75;;;10.87;59.03
64343;BME280;50675;53.530;-6.312;2024-03-23T17:46:33;100608.06;;;10.90;59.36
64343;BME280;50675;53.530;-6.312;2024-03-23T17:52:50;100609.81;;;10.79;59.40
64343;BME280;50675;53.530;-6.312;2024-03-23T17:56:17;100602.88;;;10.45;59.63
64343;BME280;50675;53.530;-6.312;2024-03-23T17:59:45;100604.72;;;10.61;59.46
64343;BME280;50675;53.530;-6.312;2024-03-23T18:06:03;100618.34;;;10.49;59.92
64343;BME280;50675;53.530;-6.312;2024-03-23T18:10:04;100614.28;;;10.30;59.81
64343;BME280;50675;53.530;-6.312;2024-03-23T18:13:08;100626.75;;;10.91;60.01
64343;BME280;50675;53.530;-6.312;2024-03-23T18:23:40;100628.88;;;10.51;60.01
64343;BME280;50675;53.530;-6.312;2024-03-23T18:26:43;100623.53;;;10.56;60.19
64343;BME280;50675;53.530;-6.312;2024-03-23T18:29:37;100639.28;;;10.42;60.00
64343;BME280;50675;53.530;-6.312;2024-03-23T18:32:40;100620.88;;;10.39;60.16
64343;BME280;50675;53.530;-6.312;2024-03-23T18:35:37;100629.66;;;10.30;59.82
64343;BME280;50675;53.530;-6.312;2024-03-23T18:38:45;100630.13;;;10.10;60.14
64343;BME280;50675;53.530;-6.312;2024-03-23T18:42:14;100634.78;;;10.31;60.08
64343;BME280;50675;53.530;-6.312;2024-03-23T19:30:34;100661.63;;;10.55;61.21
64343;BME280;50675;53.530;-6.312;2024-03-23T19:37:09;100667.03;;;10.55;61.33
64343;BME280;50675;53.530;-6.312;2024-03-23T19:40:08;100671.34;;;10.56;61.43
64343;BME280;50675;53.530;-6.312;2024-03-23T19:43:12;100621.50;;;10.13;61.51
64343;BME280;50675;53.530;-6.312;2024-03-23T19:46:07;100664.09;;;10.39;61.45
64343;BME280;50675;53.530;-6.312;2024-03-23T19:49:08;100657.59;;;10.74;61.65
64343;BME280;50675;53.530;-6.312;2024-03-23T19:55:14;100668.97;;;10.42;61.44
64343;BME280;50675;53.530;-6.312;2024-03-23T19:58:22;100676.72;;;10.72;61.58
64343;BME280;50675;53.530;-6.312;2024-03-23T20:01:18;100679.00;;;10.80;61.72
64343;BME280;50675;53.530;-6.312;2024-03-23T20:05:14;100677.25;;;10.52;61.62
64343;BME280;50675;53.530;-6.312;2024-03-23T20:12:40;100680.53;;;10.93;61.67
64343;BME280;50675;53.530;-6.312;2024-03-23T20:24:41;100681.13;;;10.40;61.98
64343;BME280;50675;53.530;-6.312;2024-03-23T21:07:09;100689.19;;;10.57;62.59
